sensor_id;sensor_type;location;lat;lon;timestamp;P1;durP1;ratioP1;P2;durP2;ratioP2
51925;SDS011;37952;51.938;15.480;2023-04-10T00:02:22;17.40;;;13.50;;
51925;SDS011;37952;51.938;15.480;2023-04-10T00:05:25;41.70;;;20.20;;
51925;SDS011;37952;51.938;15.480;2023-04-10T00:08:28;29.60;;;14.20;;
51925;SDS011;37952;51.938;15.480;2023-04-10T00:11:31;16.30;;;11.40;;
51925;SDS011;37952;51.938;15.480;2023-04-10T00:14:38;18.00;;;11.80;;
51925;SDS011;37952;51.938;15.480;2023-04-10T00:17:41;20.00;;;13.60;;
51925;SDS011;37952;51.938;15.480;2023-04-10T00:20:44;17.10;;;13.70;;
51925;SDS011;37952;51.938;15.480;2023-04-10T00:23:47;14.90;;;13.20;;
51925;SDS011;37952;51.938;15.480;2023-04-10T00:26:50;11.60;;;10.10;;
51925;SDS011;37952;51.938;15.480;2023-04-10T00:29:52;11.50;;;9.40;;
51925;SDS011;37952;51.938;15.480;2023-04-10T00:32:55;12.60;;;10.00;;
51925;SDS011;37952;51.938;15.480;2023-04-10T00:35:58;14.30;;;12.00;;
51925;SDS011;37952;51.938;15.480;2023-04-10T00:39:00;15.40;;;12.90;;
51925;SDS011;37952;51.938;15.480;2023-04-10T00:42:06;15.10;;;13.00;;
51925;SDS011;37952;51.938;15.480;2023-04-10T00:45:11;11.70;;;9.70;;
51925;SDS011;37952;51.938;15.480;2023-04-10T00:48:14;11.40;;;8.70;;
51925;SDS011;37952;51.938;15.480;2023-04-10T00:51:17;10.60;;;9.50;;
51925;SDS011;37952;51.938;15.480;2023-04-10T00:54:22;13.60;;;11.60;;
51925;SDS011;37952;51.938;15.480;2023-04-10T00:57:25;13.00;;;11.70;;
51925;SDS011;37952;51.938;15.480;2023-04-10T01:00:28;17.30;;;13.60;;
51925;SDS011;37952;51.938;15.480;2023-04-10T01:03:38;12.90;;;10.50;;
51925;SDS011;37952;51.938;15.480;2023-04-10T01:06:52;15.60;;;10.10;;
51925;SDS011;37952;51.938;15.480;2023-04-10T01:10:04;12.60;;;9.80;;
51925;SDS011;37952;51.938;15.480;2023-04-10T01:13:16;15.60;;;11.80;;
51925;SDS011;37952;51.938;15.480;2023-04-10T01:16:33;17.70;;;13.80;;
51925;SDS011;37952;51.938;15.480;2023-04-10T01:19:59;17.50;;;13.80;;
51925;SDS011;37952;51.938;15.480;2023-04-10T01:27:19;12.40;;;9.70;;
51925;SDS011;37952;51.938;15.480;2023-04-10T01:30:49;10.80;;;9.60;;
51925;SDS011;37952;51.938;15.480;2023-04-10T01:33:59;15.40;;;11.90;;
51925;SDS011;37952;51.938;15.480;2023-04-10T01:37:07;13.50;;;12.20;;
51925;SDS011;37952;51.938;15.480;2023-04-10T01:40:16;14.70;;;13.20;;
51925;SDS011;37952;51.938;15.480;2023-04-10T01:43:20;14.20;;;10.70;;
51925;SDS011;37952;51.938;15.480;2023-04-10T01:46:24;10.80;;;9.50;;
51925;SDS011;37952;51.938;15.480;2023-04-10T01:49:29;13.50;;;10.40;;
51925;SDS011;37952;51.938;15.480;2023-04-10T01:55:45;14.00;;;12.00;;
51925;SDS011;37952;51.938;15.480;2023-04-10T01:58:48;20.40;;;13.70;;
51925;SDS011;37952;51.938;15.480;2023-04-10T02:01:58;13.70;;;10.40;;
51925;SDS011;37952;51.938;15.480;2023-04-10T02:05:02;12.00;;;10.10;;
51925;SDS011;37952;51.938;15.480;2023-04-10T02:08:14;12.70;;;9.80;;
51925;SDS011;37952;51.938;15.480;2023-04-10T02:15:12;15.70;;;13.80;;
51925;SDS011;37952;51.938;15.480;2023-04-10T02:18:18;14.10;;;12.60;;
51925;SDS011;37952;51.938;15.480;2023-04-10T02:21:23;11.80;;;10.60;;
51925;SDS011;37952;51.938;15.480;2023-04-10T02:24:35;13.20;;;10.20;;
51925;SDS011;37952;51.938;15.480;2023-04-10T02:27:38;12.60;;;9.70;;
51925;SDS011;37952;51.938;15.480;2023-04-10T02:30:42;13.60;;;11.90;;
51925;SDS011;37952;51.938;15.480;2023-04-10T02:33:44;14.30;;;12.80;;
51925;SDS011;37952;51.938;15.480;2023-04-10T02:36:47;16.20;;;13.50;;
51925;SDS011;37952;51.938;15.480;2023-04-10T02:39:56;12.30;;;10.00;;
51925;SDS011;37952;51.938;15.480;2023-04-10T02:42:59;10.40;;;9.10;;
51925;SDS011;37952;51.938;15.480;2023-04-10T02:46:02;14.70;;;9.70;;
51925;SDS011;37952;51.938;15.480;2023-04-10T02:49:06;12.90;;;11.40;;
51925;SDS011;37952;51.938;15.480;2023-04-10T02:52:09;15.30;;;13.30;;
51925;SDS011;37952;51.938;15.480;2023-04-10T02:55:11;14.50;;;12.70;;
51925;SDS011;37952;51.938;15.480;2023-04-10T02:58:14;13.50;;;10.50;;
51925;SDS011;37952;51.938;15.480;2023-04-10T03:01:17;13.80;;;10.10;;
51925;SDS011;37952;51.938;15.480;2023-04-10T03:04:20;14.70;;;10.60;;
51925;SDS011;37952;51.938;15.480;2023-04-10T03:10:55;12.90;;;11.60;;
51925;SDS011;37952;51.938;15.480;2023-04-10T03:13:58;14.50;;;12.90;;
51925;SDS011;37952;51.938;15.480;2023-04-10T03:17:00;10.90;;;9.70;;
51925;SDS011;37952;51.938;15.480;2023-04-10T03:20:03;14.80;;;10.40;;
51925;SDS011;37952;51.938;15.480;2023-04-10T03:23:06;13.40;;;10.70;;
51925;SDS011;37952;51.938;15.480;2023-04-10T03:26:09;12.70;;;11.20;;
51925;SDS011;37952;51.938;15.480;2023-04-10T03:33:00;13.20;;;9.90;;
51925;SDS011;37952;51.938;15.480;2023-04-10T03:36:03;15.80;;;10.70;;
51925;SDS011;37952;51.938;15.480;2023-04-10T03:39:06;12.00;;;10.80;;
51925;SDS011;37952;51.938;15.480;2023-04-10T03:42:09;15.30;;;12.60;;
51925;SDS011;37952;51.938;15.480;2023-04-10T03:45:12;12.40;;;11.00;;
51925;SDS011;37952;51.938;15.480;2023-04-10T03:48:15;11.90;;;9.50;;
51925;SDS011;37952;51.938;15.480;2023-04-10T03:51:19;11.60;;;9.30;;
51925;SDS011;37952;51.938;15.480;2023-04-10T03:54:22;13.80;;;10.20;;
51925;SDS011;37952;51.938;15.480;2023-04-10T03:57:24;17.50;;;12.90;;
51925;SDS011;37952;51.938;15.480;2023-04-10T04:00:27;16.70;;;12.20;;
51925;SDS011;37952;51.938;15.480;2023-04-10T04:03:30;16.90;;;12.30;;
51925;SDS011;37952;51.938;15.480;2023-04-10T04:06:33;13.40;;;10.50;;
51925;SDS011;37952;51.938;15.480;2023-04-10T04:09:48;11.10;;;9.40;;
51925;SDS011;37952;51.938;15.480;2023-04-10T04:16:18;15.00;;;11.50;;
51925;SDS011;37952;51.938;15.480;2023-04-10T04:19:21;15.30;;;12.20;;
51925;SDS011;37952;51.938;15.480;2023-04-10T04:22:23;14.40;;;12.60;;
51925;SDS011;37952;51.938;15.480;2023-04-10T04:25:26;11.70;;;10.20;;
51925;SDS011;37952;51.938;15.480;2023-04-10T04:28:29;15.50;;;10.40;;
51925;SDS011;37952;51.938;15.480;2023-04-10T04:31:31;14.40;;;10.20;;
51925;SDS011;37952;51.938;15.480;2023-04-10T04:34:36;13.10;;;11.80;;
51925;SDS011;37952;51.938;15.480;2023-04-10T04:37:39;15.50;;;12.80;;
51925;SDS011;37952;51.938;15.480;2023-04-10T04:40:42;18.20;;;13.20;;
51925;SDS011;37952;51.938;15.480;2023-04-10T04:43:45;13.40;;;10.30;;
51925;SDS011;37952;51.938;15.480;2023-04-10T04:46:48;13.00;;;10.00;;
51925;SDS011;37952;51.938;15.480;2023-04-10T04:49:51;23.70;;;10.70;;
51925;SDS011;37952;51.938;15.480;2023-04-10T04:52:54;14.10;;;11.60;;
51925;SDS011;37952;51.938;15.480;2023-04-10T04:55:57;14.30;;;12.90;;
51925;SDS011;37952;51.938;15.480;2023-04-10T04:59:00;13.10;;;10.50;;
51925;SDS011;37952;51.938;15.480;2023-04-10T05:05:20;14.10;;;10.40;;
51925;SDS011;37952;51.938;15.480;2023-04-10T05:08:23;14.50;;;11.50;;
51925;SDS011;37952;51.938;15.480;2023-04-10T05:11:25;15.60;;;12.20;;
51925;SDS011;37952;51.938;15.480;2023-04-10T05:14:28;13.40;;;10.90;;
51925;SDS011;37952;51.938;15.480;2023-04-10T05:17:31;10.40;;;9.20;;
51925;SDS011;37952;51.938;15.480;2023-04-10T05:20:34;13.00;;;9.40;;
51925;SDS011;37952;51.938;15.480;2023-04-10T05:23:41;11.70;;;10.60;;
51925;SDS011;37952;51.938;15.480;2023-04-10T05:26:44;15.10;;;12.20;;
51925;SDS011;37952;51.938;15.480;2023-04-10T05:29:49;13.60;;;12.20;;
51925;SDS011;37952;51.938;15.480;2023-04-10T05:32:52;16.80;;;10.60;;
51925;SDS011;37952;51.938;15.480;2023-04-10T05:35:55;11.60;;;9.60;;
51925;SDS011;37952;51.938;15.480;2023-04-10T05:38:58;11.50;;;10.20;;
51925;SDS011;37952;51.938;15.480;2023-04-10T05:42:00;12.10;;;11.00;;
51925;SDS011;37952;51.938;15.480;2023-04-10T05:45:04;14.40;;;13.10;;
51925;SDS011;37952;51.938;15.480;2023-04-10T05:48:07;11.70;;;10.50;;
51925;SDS011;37952;51.938;15.480;2023-04-10T05:51:10;13.00;;;9.60;;
51925;SDS011;37952;51.938;15.480;2023-04-10T05:57:27;13.60;;;11.60;;
51925;SDS011;37952;51.938;15.480;2023-04-10T06:00:30;16.00;;;14.00;;
51925;SDS011;37952;51.938;15.480;2023-04-10T06:03:33;14.10;;;10.90;;
51925;SDS011;37952;51.938;15.480;2023-04-10T06:06:37;10.30;;;9.20;;
51925;SDS011;37952;51.938;15.480;2023-04-10T06:09:42;13.40;;;10.70;;
51925;SDS011;37952;51.938;15.480;2023-04-10T06:12:45;13.40;;;11.90;;
51925;SDS011;37952;51.938;15.480;2023-04-10T06:15:48;15.60;;;13.20;;
51925;SDS011;37952;51.938;15.480;2023-04-10T06:18:50;15.00;;;10.90;;
51925;SDS011;37952;51.938;15.480;2023-04-10T06:25:20;10.00;;;9.00;;
51925;SDS011;37952;51.938;15.480;2023-04-10T06:28:23;12.20;;;11.00;;
51925;SDS011;37952;51.938;15.480;2023-04-10T06:31:26;13.30;;;12.00;;
51925;SDS011;37952;51.938;15.480;2023-04-10T06:34:29;12.60;;;10.60;;
51925;SDS011;37952;51.938;15.480;2023-04-10T06:37:41;10.80;;;9.70;;
51925;SDS011;37952;51.938;15.480;2023-04-10T06:40:45;12.00;;;10.70;;
51925;SDS011;37952;51.938;15.480;2023-04-10T06:43:48;13.20;;;11.10;;
51925;SDS011;37952;51.938;15.480;2023-04-10T06:46:50;12.80;;;11.50;;
51925;SDS011;37952;51.938;15.480;2023-04-10T06:49:53;11.10;;;9.70;;
51925;SDS011;37952;51.938;15.480;2023-04-10T06:52:56;9.50;;;8.60;;
51925;SDS011;37952;51.938;15.480;2023-04-10T06:56:04;10.20;;;9.00;;
51925;SDS011;37952;51.938;15.480;2023-04-10T06:59:11;11.50;;;10.60;;
51925;SDS011;37952;51.938;15.480;2023-04-10T07:02:14;13.30;;;12.00;;
51925;SDS011;37952;51.938;15.480;2023-04-10T07:05:19;12.30;;;9.60;;
51925;SDS011;37952;51.938;15.480;2023-04-10T07:08:22;10.00;;;9.20;;
51925;SDS011;37952;51.938;15.480;2023-04-10T07:11:25;10.30;;;9.40;;
51925;SDS011;37952;51.938;15.480;2023-04-10T07:18:01;13.00;;;11.80;;
51925;SDS011;37952;51.938;15.480;2023-04-10T07:21:09;10.70;;;9.70;;
51925;SDS011;37952;51.938;15.480;2023-04-10T07:24:16;11.00;;;10.00;;
51925;SDS011;37952;51.938;15.480;2023-04-10T07:30:33;12.60;;;11.40;;
51925;SDS011;37952;51.938;15.480;2023-04-10T07:33:36;14.20;;;12.80;;
51925;SDS011;37952;51.938;15.480;2023-04-10T07:36:40;13.20;;;10.70;;
51925;SDS011;37952;51.938;15.480;2023-04-10T07:43:16;11.40;;;10.40;;
51925;SDS011;37952;51.938;15.480;2023-04-10T07:46:19;12.40;;;11.20;;
51925;SDS011;37952;51.938;15.480;2023-04-10T07:49:22;13.50;;;12.20;;
51925;SDS011;37952;51.938;15.480;2023-04-10T07:52:25;11.50;;;10.20;;
51925;SDS011;37952;51.938;15.480;2023-04-10T07:55:27;10.90;;;9.30;;
51925;SDS011;37952;51.938;15.480;2023-04-10T07:58:30;12.00;;;10.10;;
51925;SDS011;37952;51.938;15.480;2023-04-10T08:01:34;11.90;;;10.70;;
51925;SDS011;37952;51.938;15.480;2023-04-10T08:04:37;14.20;;;12.80;;
51925;SDS011;37952;51.938;15.480;2023-04-10T08:07:40;12.20;;;9.70;;
51925;SDS011;37952;51.938;15.480;2023-04-10T08:10:42;9.90;;;9.00;;
51925;SDS011;37952;51.938;15.480;2023-04-10T08:13:45;9.30;;;8.50;;
51925;SDS011;37952;51.938;15.480;2023-04-10T08:16:48;10.80;;;9.80;;
51925;SDS011;37952;51.938;15.480;2023-04-10T08:19:51;12.20;;;11.20;;
51925;SDS011;37952;51.938;15.480;2023-04-10T08:22:54;8.90;;;8.10;;
51925;SDS011;37952;51.938;15.480;2023-04-10T08:26:04;9.10;;;8.20;;
51925;SDS011;37952;51.938;15.480;2023-04-10T08:29:07;9.50;;;8.80;;
51925;SDS011;37952;51.938;15.480;2023-04-10T08:32:10;10.70;;;9.60;;
51925;SDS011;37952;51.938;15.480;2023-04-10T08:35:13;11.80;;;10.80;;
51925;SDS011;37952;51.938;15.480;2023-04-10T08:38:16;9.30;;;8.30;;
51925;SDS011;37952;51.938;15.480;2023-04-10T08:41:18;9.30;;;8.40;;
51925;SDS011;37952;51.938;15.480;2023-04-10T08:44:22;11.20;;;9.80;;
51925;SDS011;37952;51.938;15.480;2023-04-10T08:47:25;12.10;;;11.10;;
51925;SDS011;37952;51.938;15.480;2023-04-10T08:50:30;13.20;;;11.80;;
51925;SDS011;37952;51.938;15.480;2023-04-10T08:53:37;9.70;;;8.80;;
51925;SDS011;37952;51.938;15.480;2023-04-10T09:00:00;10.40;;;9.40;;
51925;SDS011;37952;51.938;15.480;2023-04-10T09:03:21;13.00;;;11.70;;
51925;SDS011;37952;51.938;15.480;2023-04-10T09:06:27;17.30;;;13.90;;
51925;SDS011;37952;51.938;15.480;2023-04-10T09:09:30;11.10;;;9.40;;
51925;SDS011;37952;51.938;15.480;2023-04-10T09:12:46;10.80;;;9.50;;
51925;SDS011;37952;51.938;15.480;2023-04-10T09:15:59;12.20;;;11.00;;
51925;SDS011;37952;51.938;15.480;2023-04-10T09:19:02;12.70;;;11.50;;
51925;SDS011;37952;51.938;15.480;2023-04-10T09:25:49;10.00;;;9.10;;
51925;SDS011;37952;51.938;15.480;2023-04-10T09:31:59;11.50;;;10.40;;
51925;SDS011;37952;51.938;15.480;2023-04-10T09:35:02;13.40;;;12.20;;
51925;SDS011;37952;51.938;15.480;2023-04-10T09:38:12;10.40;;;9.20;;
51925;SDS011;37952;51.938;15.480;2023-04-10T09:41:19;9.90;;;9.10;;
51925;SDS011;37952;51.938;15.480;2023-04-10T09:44:32;12.20;;;11.00;;
51925;SDS011;37952;51.938;15.480;2023-04-10T09:47:35;14.60;;;13.20;;
51925;SDS011;37952;51.938;15.480;2023-04-10T09:50:39;14.30;;;13.00;;
51925;SDS011;37952;51.938;15.480;2023-04-10T09:53:48;10.10;;;9.20;;
51925;SDS011;37952;51.938;15.480;2023-04-10T09:56:52;9.10;;;8.40;;
51925;SDS011;37952;51.938;15.480;2023-04-10T09:59:56;10.50;;;9.60;;
51925;SDS011;37952;51.938;15.480;2023-04-10T10:03:10;12.20;;;10.70;;
51925;SDS011;37952;51.938;15.480;2023-04-10T10:06:15;12.90;;;11.60;;
51925;SDS011;37952;51.938;15.480;2023-04-10T10:09:18;10.00;;;8.90;;
51925;SDS011;37952;51.938;15.480;2023-04-10T10:12:22;9.50;;;8.70;;
51925;SDS011;37952;51.938;15.480;2023-04-10T10:21:55;13.80;;;12.50;;
51925;SDS011;37952;51.938;15.480;2023-04-10T10:25:01;10.20;;;8.50;;
51925;SDS011;37952;51.938;15.480;2023-04-10T10:28:05;9.00;;;8.20;;
51925;SDS011;37952;51.938;15.480;2023-04-10T10:31:08;10.90;;;9.90;;
51925;SDS011;37952;51.938;15.480;2023-04-10T10:34:11;11.70;;;10.60;;
51925;SDS011;37952;51.938;15.480;2023-04-10T10:37:16;13.40;;;11.90;;
51925;SDS011;37952;51.938;15.480;2023-04-10T10:40:26;12.40;;;11.40;;
51925;SDS011;37952;51.938;15.480;2023-04-10T10:47:13;8.40;;;7.80;;
51925;SDS011;37952;51.938;15.480;2023-04-10T10:50:17;10.90;;;10.10;;
51925;SDS011;37952;51.938;15.480;2023-04-10T10:53:39;12.10;;;11.00;;
51925;SDS011;37952;51.938;15.480;2023-04-10T10:56:44;11.70;;;10.70;;
51925;SDS011;37952;51.938;15.480;2023-04-10T11:06:13;9.60;;;8.80;;
51925;SDS011;37952;51.938;15.480;2023-04-10T11:16:21;12.50;;;11.40;;
51925;SDS011;37952;51.938;15.480;2023-04-10T11:19:58;11.60;;;10.70;;
51925;SDS011;37952;51.938;15.480;2023-04-10T11:23:09;11.70;;;10.60;;
51925;SDS011;37952;51.938;15.480;2023-04-10T11:29:37;7.90;;;7.30;;
51925;SDS011;37952;51.938;15.480;2023-04-10T11:35:52;9.40;;;8.70;;
51925;SDS011;37952;51.938;15.480;2023-04-10T11:38:57;10.30;;;9.60;;
51925;SDS011;37952;51.938;15.480;2023-04-10T11:42:02;11.30;;;10.30;;
51925;SDS011;37952;51.938;15.480;2023-04-10T11:45:22;10.80;;;10.00;;
51925;SDS011;37952;51.938;15.480;2023-04-10T11:48:29;11.90;;;10.50;;
51925;SDS011;37952;51.938;15.480;2023-04-10T11:51:32;11.40;;;10.40;;
51925;SDS011;37952;51.938;15.480;2023-04-10T11:54:35;12.00;;;11.00;;
51925;SDS011;37952;51.938;15.480;2023-04-10T11:57:39;12.00;;;11.00;;
51925;SDS011;37952;51.938;15.480;2023-04-10T12:00:42;12.30;;;11.20;;
51925;SDS011;37952;51.938;15.480;2023-04-10T12:03:45;11.80;;;10.80;;
51925;SDS011;37952;51.938;15.480;2023-04-10T12:06:51;9.10;;;8.30;;
51925;SDS011;37952;51.938;15.480;2023-04-10T12:09:55;9.40;;;8.60;;
51925;SDS011;37952;51.938;15.480;2023-04-10T12:13:01;10.20;;;9.40;;
51925;SDS011;37952;51.938;15.480;2023-04-10T12:16:08;11.40;;;10.40;;
51925;SDS011;37952;51.938;15.480;2023-04-10T12:19:12;10.60;;;9.80;;
51925;SDS011;37952;51.938;15.480;2023-04-10T12:22:17;11.50;;;10.50;;
51925;SDS011;37952;51.938;15.480;2023-04-10T12:25:20;10.00;;;9.20;;
51925;SDS011;37952;51.938;15.480;2023-04-10T12:28:23;10.60;;;9.60;;
51925;SDS011;37952;51.938;15.480;2023-04-10T12:31:33;10.40;;;8.50;;
51925;SDS011;37952;51.938;15.480;2023-04-10T12:41:39;10.60;;;9.50;;
51925;SDS011;37952;51.938;15.480;2023-04-10T12:48:34;10.40;;;9.40;;
51925;SDS011;37952;51.938;15.480;2023-04-10T12:51:44;9.30;;;8.40;;
51925;SDS011;37952;51.938;15.480;2023-04-10T12:54:50;9.80;;;9.00;;
51925;SDS011;37952;51.938;15.480;2023-04-10T13:01:19;8.80;;;8.10;;
51925;SDS011;37952;51.938;15.480;2023-04-10T13:04:23;9.00;;;8.40;;
51925;SDS011;37952;51.938;15.480;2023-04-10T13:07:26;8.20;;;7.80;;
51925;SDS011;37952;51.938;15.480;2023-04-10T13:10:28;8.80;;;8.20;;
51925;SDS011;37952;51.938;15.480;2023-04-10T13:13:31;8.10;;;7.60;;
51925;SDS011;37952;51.938;15.480;2023-04-10T13:16:34;8.30;;;7.70;;
51925;SDS011;37952;51.938;15.480;2023-04-10T13:19:41;8.70;;;8.20;;
51925;SDS011;37952;51.938;15.480;2023-04-10T13:22:45;8.20;;;7.60;;
51925;SDS011;37952;51.938;15.480;2023-04-10T13:25:48;7.90;;;7.40;;
51925;SDS011;37952;51.938;15.480;2023-04-10T13:28:52;7.90;;;7.40;;
51925;SDS011;37952;51.938;15.480;2023-04-10T13:31:55;8.00;;;7.50;;
51925;SDS011;37952;51.938;15.480;2023-04-10T13:34:58;8.40;;;7.90;;
51925;SDS011;37952;51.938;15.480;2023-04-10T13:38:02;8.40;;;7.70;;
51925;SDS011;37952;51.938;15.480;2023-04-10T13:41:05;7.90;;;7.30;;
51925;SDS011;37952;51.938;15.480;2023-04-10T13:44:08;7.30;;;6.80;;
51925;SDS011;37952;51.938;15.480;2023-04-10T13:47:16;7.10;;;6.60;;
51925;SDS011;37952;51.938;15.480;2023-04-10T13:50:19;7.00;;;6.60;;
51925;SDS011;37952;51.938;15.480;2023-04-10T13:53:22;8.60;;;7.90;;
51925;SDS011;37952;51.938;15.480;2023-04-10T13:56:25;8.50;;;7.90;;
51925;SDS011;37952;51.938;15.480;2023-04-10T13:59:29;8.20;;;7.50;;
51925;SDS011;37952;51.938;15.480;2023-04-10T14:02:38;8.70;;;8.10;;
51925;SDS011;37952;51.938;15.480;2023-04-10T14:05:41;8.80;;;8.20;;
51925;SDS011;37952;51.938;15.480;2023-04-10T14:08:44;8.70;;;8.00;;
51925;SDS011;37952;51.938;15.480;2023-04-10T14:11:48;9.30;;;8.50;;
51925;SDS011;37952;51.938;15.480;2023-04-10T14:14:53;8.70;;;8.00;;
51925;SDS011;37952;51.938;15.480;2023-04-10T14:18:01;7.80;;;7.20;;
51925;SDS011;37952;51.938;15.480;2023-04-10T14:21:06;8.50;;;7.80;;
51925;SDS011;37952;51.938;15.480;2023-04-10T14:24:10;7.70;;;7.30;;
51925;SDS011;37952;51.938;15.480;2023-04-10T14:27:13;8.20;;;7.70;;
51925;SDS011;37952;51.938;15.480;2023-04-10T14:30:19;8.00;;;7.50;;
51925;SDS011;37952;51.938;15.480;2023-04-10T14:33:22;8.40;;;7.80;;
51925;SDS011;37952;51.938;15.480;2023-04-10T14:36:25;7.90;;;7.20;;
51925;SDS011;37952;51.938;15.480;2023-04-10T14:39:29;8.30;;;7.70;;
51925;SDS011;37952;51.938;15.480;2023-04-10T14:42:32;8.40;;;7.70;;
51925;SDS011;37952;51.938;15.480;2023-04-10T14:45:35;7.40;;;6.90;;
51925;SDS011;37952;51.938;15.480;2023-04-10T14:48:38;8.00;;;7.60;;
51925;SDS011;37952;51.938;15.480;2023-04-10T14:51:41;9.00;;;8.30;;
51925;SDS011;37952;51.938;15.480;2023-04-10T14:54:45;9.40;;;8.50;;
51925;SDS011;37952;51.938;15.480;2023-04-10T14:57:48;8.60;;;7.90;;
51925;SDS011;37952;51.938;15.480;2023-04-10T15:00:51;9.20;;;8.60;;
51925;SDS011;37952;51.938;15.480;2023-04-10T15:03:54;8.10;;;7.70;;
51925;SDS011;37952;51.938;15.480;2023-04-10T15:06:57;7.70;;;7.20;;
51925;SDS011;37952;51.938;15.480;2023-04-10T15:10:00;7.90;;;7.40;;
51925;SDS011;37952;51.938;15.480;2023-04-10T15:13:03;8.20;;;7.60;;
51925;SDS011;37952;51.938;15.480;2023-04-10T15:16:07;9.00;;;8.30;;
51925;SDS011;37952;51.938;15.480;2023-04-10T15:19:10;7.90;;;7.30;;
51925;SDS011;37952;51.938;15.480;2023-04-10T15:22:15;7.90;;;7.50;;
51925;SDS011;37952;51.938;15.480;2023-04-10T15:25:19;8.20;;;7.70;;
51925;SDS011;37952;51.938;15.480;2023-04-10T15:28:22;8.10;;;7.60;;
51925;SDS011;37952;51.938;15.480;2023-04-10T15:31:25;7.50;;;7.10;;
51925;SDS011;37952;51.938;15.480;2023-04-10T15:34:28;6.60;;;6.20;;
51925;SDS011;37952;51.938;15.480;2023-04-10T15:37:30;7.20;;;6.70;;
51925;SDS011;37952;51.938;15.480;2023-04-10T15:40:35;6.30;;;6.00;;
51925;SDS011;37952;51.938;15.480;2023-04-10T15:43:38;7.20;;;6.70;;
51925;SDS011;37952;51.938;15.480;2023-04-10T15:46:41;6.80;;;6.40;;
51925;SDS011;37952;51.938;15.480;2023-04-10T15:49:44;6.90;;;6.50;;
51925;SDS011;37952;51.938;15.480;2023-04-10T15:52:47;7.20;;;6.70;;
51925;SDS011;37952;51.938;15.480;2023-04-10T15:55:50;7.20;;;6.70;;
51925;SDS011;37952;51.938;15.480;2023-04-10T15:58:53;6.40;;;6.00;;
51925;SDS011;37952;51.938;15.480;2023-04-10T16:01:56;6.90;;;6.50;;
51925;SDS011;37952;51.938;15.480;2023-04-10T16:04:59;7.50;;;7.10;;
51925;SDS011;37952;51.938;15.480;2023-04-10T16:08:02;7.30;;;6.90;;
51925;SDS011;37952;51.938;15.480;2023-04-10T16:11:05;7.30;;;6.80;;
51925;SDS011;37952;51.938;15.480;2023-04-10T16:14:08;7.30;;;6.90;;
51925;SDS011;37952;51.938;15.480;2023-04-10T16:17:11;8.00;;;7.60;;
51925;SDS011;37952;51.938;15.480;2023-04-10T16:20:14;8.10;;;7.60;;
51925;SDS011;37952;51.938;15.480;2023-04-10T16:23:16;7.70;;;7.20;;
51925;SDS011;37952;51.938;15.480;2023-04-10T16:26:19;8.40;;;7.70;;
51925;SDS011;37952;51.938;15.480;2023-04-10T16:29:23;9.10;;;8.50;;
51925;SDS011;37952;51.938;15.480;2023-04-10T16:32:26;8.30;;;7.70;;
51925;SDS011;37952;51.938;15.480;2023-04-10T16:35:31;9.20;;;8.40;;
51925;SDS011;37952;51.938;15.480;2023-04-10T16:38:34;8.50;;;7.90;;
51925;SDS011;37952;51.938;15.480;2023-04-10T16:41:37;8.80;;;8.20;;
51925;SDS011;37952;51.938;15.480;2023-04-10T16:44:40;8.50;;;7.90;;
51925;SDS011;37952;51.938;15.480;2023-04-10T16:47:42;7.70;;;7.20;;
51925;SDS011;37952;51.938;15.480;2023-04-10T16:50:47;7.30;;;6.90;;
51925;SDS011;37952;51.938;15.480;2023-04-10T16:53:50;8.00;;;7.30;;
51925;SDS011;37952;51.938;15.480;2023-04-10T16:56:53;7.80;;;7.30;;
51925;SDS011;37952;51.938;15.480;2023-04-10T16:59:57;7.80;;;7.20;;
51925;SDS011;37952;51.938;15.480;2023-04-10T17:03:00;7.90;;;7.40;;
51925;SDS011;37952;51.938;15.480;2023-04-10T17:06:04;8.20;;;7.80;;
51925;SDS011;37952;51.938;15.480;2023-04-10T17:09:07;8.10;;;7.50;;
51925;SDS011;37952;51.938;15.480;2023-04-10T17:12:10;7.50;;;7.00;;
51925;SDS011;37952;51.938;15.480;2023-04-10T17:15:13;8.10;;;7.60;;
51925;SDS011;37952;51.938;15.480;2023-04-10T17:18:16;8.00;;;7.30;;
51925;SDS011;37952;51.938;15.480;2023-04-10T17:21:21;8.80;;;8.20;;
51925;SDS011;37952;51.938;15.480;2023-04-10T17:24:27;8.80;;;7.70;;
51925;SDS011;37952;51.938;15.480;2023-04-10T17:27:33;8.50;;;7.90;;
51925;SDS011;37952;51.938;15.480;2023-04-10T17:30:36;8.40;;;7.70;;
51925;SDS011;37952;51.938;15.480;2023-04-10T17:33:39;7.60;;;7.10;;
51925;SDS011;37952;51.938;15.480;2023-04-10T17:36:46;8.30;;;7.50;;
51925;SDS011;37952;51.938;15.480;2023-04-10T17:39:51;8.20;;;7.60;;
51925;SDS011;37952;51.938;15.480;2023-04-10T17:42:55;8.40;;;7.80;;
51925;SDS011;37952;51.938;15.480;2023-04-10T17:45:58;10.00;;;9.10;;
51925;SDS011;37952;51.938;15.480;2023-04-10T17:49:04;8.40;;;7.70;;
51925;SDS011;37952;51.938;15.480;2023-04-10T17:52:07;8.70;;;8.10;;
51925;SDS011;37952;51.938;15.480;2023-04-10T17:55:10;9.40;;;8.70;;
51925;SDS011;37952;51.938;15.480;2023-04-10T17:58:13;8.90;;;8.20;;
51925;SDS011;37952;51.938;15.480;2023-04-10T18:01:23;9.60;;;8.80;;
51925;SDS011;37952;51.938;15.480;2023-04-10T18:04:32;9.40;;;8.70;;
51925;SDS011;37952;51.938;15.480;2023-04-10T18:07:36;8.90;;;8.20;;
51925;SDS011;37952;51.938;15.480;2023-04-10T18:10:39;9.30;;;8.70;;
51925;SDS011;37952;51.938;15.480;2023-04-10T18:13:42;10.10;;;8.60;;
51925;SDS011;37952;51.938;15.480;2023-04-10T18:16:46;9.90;;;9.10;;
51925;SDS011;37952;51.938;15.480;2023-04-10T18:19:52;10.40;;;9.60;;
51925;SDS011;37952;51.938;15.480;2023-04-10T18:22:57;10.40;;;9.60;;
51925;SDS011;37952;51.938;15.480;2023-04-10T18:26:00;11.90;;;10.90;;
51925;SDS011;37952;51.938;15.480;2023-04-10T18:29:03;12.50;;;11.20;;
51925;SDS011;37952;51.938;15.480;2023-04-10T18:32:06;14.40;;;11.70;;
51925;SDS011;37952;51.938;15.480;2023-04-10T18:35:09;12.20;;;11.00;;
51925;SDS011;37952;51.938;15.480;2023-04-10T18:38:12;13.20;;;11.90;;
51925;SDS011;37952;51.938;15.480;2023-04-10T18:41:15;15.00;;;13.00;;
51925;SDS011;37952;51.938;15.480;2023-04-10T18:44:18;14.10;;;12.70;;
51925;SDS011;37952;51.938;15.480;2023-04-10T18:47:21;16.60;;;13.30;;
51925;SDS011;37952;51.938;15.480;2023-04-10T18:50:24;16.00;;;12.30;;
51925;SDS011;37952;51.938;15.480;2023-04-10T18:53:27;14.10;;;12.40;;
51925;SDS011;37952;51.938;15.480;2023-04-10T18:56:31;14.00;;;12.50;;
51925;SDS011;37952;51.938;15.480;2023-04-10T18:59:37;13.40;;;12.10;;
51925;SDS011;37952;51.938;15.480;2023-04-10T19:02:40;13.80;;;12.50;;
51925;SDS011;37952;51.938;15.480;2023-04-10T19:05:43;13.70;;;12.30;;
51925;SDS011;37952;51.938;15.480;2023-04-10T19:08:46;15.50;;;13.80;;
51925;SDS011;37952;51.938;15.480;2023-04-10T19:11:49;15.10;;;13.50;;
51925;SDS011;37952;51.938;15.480;2023-04-10T19:14:52;13.60;;;12.30;;
51925;SDS011;37952;51.938;15.480;2023-04-10T19:17:55;13.40;;;12.10;;
51925;SDS011;37952;51.938;15.480;2023-04-10T19:20:57;14.10;;;12.80;;
51925;SDS011;37952;51.938;15.480;2023-04-10T19:24:01;14.20;;;12.90;;
51925;SDS011;37952;51.938;15.480;2023-04-10T19:27:04;12.60;;;11.40;;
51925;SDS011;37952;51.938;15.480;2023-04-10T19:30:07;13.20;;;12.00;;
51925;SDS011;37952;51.938;15.480;2023-04-10T19:33:10;14.00;;;12.40;;
51925;SDS011;37952;51.938;15.480;2023-04-10T19:36:14;11.90;;;10.80;;